Time;durP1;ratioP1;P1;durP2;ratioP2;P2;SDS_P1;SDS_P2;PMS_P1;PMS_P2;Temp;Humidity;BMP_temperature;BMP_pressure;BME280_temperature;BME280_humidity;BME280_pressure;Samples;Min_cycle;Max_cycle;Signal;HPM_P1;HPM_P2
2023/10/16 00:01:03;;;;;;;0.10;0.10;;;;;;;;;;5122075;27;20717;-74
2023/10/16 00:03:29;;;;;;;;;;;;;;;;;;5113515;27;20055;-77
2023/10/16 00:05:56;;;;;;;0.10;0.10;;;;;;;;;;5123816;27;48257;-77
2023/10/16 00:08:23;;;;;;;0.00;0.00;;;;;;;;;;5130184;27;20052;-77
2023/10/16 00:11:01;;;;;;;0.03;0.03;;;;;;;;;;5113170;27;20058;-77
2023/10/16 00:13:27;;;;;;;0.10;0.10;;;;;;;;;;5122989;27;20052;-76
2023/10/16 00:15:55;;;;;;;0.10;0.10;;;;;;;;;;5125089;27;20054;-77
2023/10/16 00:18:23;;;;;;;0.10;0.10;;;;;;;;;;5123201;27;20054;-74
2023/10/16 00:20:51;;;;;;;0.10;0.10;;;;;;;;;;5129576;27;20513;-76
2023/10/16 00:23:18;;;;;;;0.10;0.10;;;;;;;;;;5127581;27;20449;-77
2023/10/16 00:25:44;;;;;;;0.10;0.10;;;;;;;;;;5125065;27;20131;-77
2023/10/16 00:28:11;;;;;;;0.10;0.10;;;;;;;;;;5126024;27;20039;-76
2023/10/16 00:30:38;;;;;;;0.00;0.00;;;;;;;;;;5131293;27;20054;-77
2023/10/16 00:33:08;;;;;;;0.10;0.10;;;;;;;;;;5104651;27;20503;-76
2023/10/16 00:35:38;;;;;;;0.10;0.10;;;;;;;;;;5124697;27;20047;-77
2023/10/16 00:38:04;;;;;;;0.10;0.10;;;;;;;;;;5128446;27;20401;-78
2023/10/16 00:40:31;;;;;;;0.10;0.10;;;;;;;;;;5122571;27;20162;-77
2023/10/16 00:43:06;;;;;;;0.10;0.10;;;;;;;;;;5124866;27;20048;-77
2023/10/16 00:45:45;;;;;;;0.10;0.10;;;;;;;;;;5112024;27;20052;-77
2023/10/16 00:48:18;;;;;;;0.10;0.10;;;;;;;;;;5135153;27;20057;-77
2023/10/16 00:50:49;;;;;;;0.10;0.10;;;;;;;;;;5115559;27;20110;-77
2023/10/16 00:53:20;;;;;;;0.10;0.10;;;;;;;;;;5110182;27;20052;-76
2023/10/16 00:55:46;;;;;;;;;;;;;;;;;;5124514;27;20056;-77
2023/10/16 00:58:14;;;;;;;0.10;0.10;;;;;;;;;;5106040;27;47806;-77
2023/10/16 01:00:45;;;;;;;0.10;0.10;;;;;;;;;;5126720;27;20058;-77
2023/10/16 01:03:12;;;;;;;0.10;0.10;;;;;;;;;;5128901;27;20056;-76
2023/10/16 01:05:42;;;;;;;0.10;0.10;;;;;;;;;;5126126;27;20048;-77
2023/10/16 01:08:10;;;;;;;0.00;0.00;;;;;;;;;;5119898;27;20112;-74
2023/10/16 01:10:59;;;;;;;0.10;0.10;;;;;;;;;;5121941;27;20060;-77
2023/10/16 01:13:26;;;;;;;0.10;0.10;;;;;;;;;;5119511;27;20048;-77
2023/10/16 01:15:53;;;;;;;0.10;0.10;;;;;;;;;;5123788;27;20031;-76
2023/10/16 01:18:19;;;;;;;0.10;0.10;;;;;;;;;;5122650;27;20048;-77
2023/10/16 01:20:48;;;;;;;0.10;0.10;;;;;;;;;;5127808;27;20517;-77
2023/10/16 01:23:19;;;;;;;0.10;0.10;;;;;;;;;;5129462;27;20100;-75
2023/10/16 01:25:49;;;;;;;0.10;0.10;;;;;;;;;;5113328;27;20812;-75
2023/10/16 01:28:16;;;;;;;0.63;0.63;;;;;;;;;;5103356;27;20075;-76
2023/10/16 01:30:45;;;;;;;0.10;0.10;;;;;;;;;;5123222;27;20551;-77
2023/10/16 01:33:16;;;;;;;0.10;0.10;;;;;;;;;;5121415;27;20105;-75
2023/10/16 01:35:43;;;;;;;0.10;0.10;;;;;;;;;;5125225;27;20086;-77
2023/10/16 01:38:19;;;;;;;0.10;0.10;;;;;;;;;;5116698;27;20071;-74
2023/10/16 01:43:32;;;;;;;0.10;0.10;;;;;;;;;;5121534;27;20148;-77
2023/10/16 01:45:59;;;;;;;0.10;0.10;;;;;;;;;;5110688;27;20055;-76
2023/10/16 01:48:29;;;;;;;0.10;0.10;;;;;;;;;;5140236;22;21268;-81
2023/10/16 01:50:56;;;;;;;0.10;0.10;;;;;;;;;;5112505;27;20104;-81
2023/10/16 01:53:25;;;;;;;0.10;0.10;;;;;;;;;;5125086;27;20032;-84
2023/10/16 01:55:54;;;;;;;0.10;0.10;;;;;;;;;;5129511;27;20040;-82
2023/10/16 01:58:21;;;;;;;0.10;0.10;;;;;;;;;;5122981;27;20055;-82
2023/10/16 02:00:48;;;;;;;0.10;0.10;;;;;;;;;;5101849;27;20055;-82
2023/10/16 02:03:17;;;;;;;0.10;0.10;;;;;;;;;;5096804;28;20056;-84
2023/10/16 02:05:45;;;;;;;0.10;0.10;;;;;;;;;;5107822;27;20086;-84
2023/10/16 02:08:12;;;;;;;0.10;0.10;;;;;;;;;;5092081;27;20118;-84
2023/10/16 02:10:40;;;;;;;0.10;0.10;;;;;;;;;;5097554;28;20063;-83
2023/10/16 02:13:08;;;;;;;0.10;0.10;;;;;;;;;;5097791;27;20032;-83
2023/10/16 02:15:36;;;;;;;0.10;0.10;;;;;;;;;;5096859;27;20052;-83
2023/10/16 02:18:05;;;;;;;0.10;0.10;;;;;;;;;;5092083;27;20052;-83
2023/10/16 02:20:36;;;;;;;0.10;0.10;;;;;;;;;;5092452;28;20036;-82
2023/10/16 02:23:03;;;;;;;3.05;2.63;;;;;;;;;;5094091;27;20602;-85
2023/10/16 02:25:29;;;;;;;0.10;0.10;;;;;;;;;;5093425;28;20056;-83
2023/10/16 02:27:56;;;;;;;0.10;0.10;;;;;;;;;;5098655;28;20086;-83
2023/10/16 02:32:53;;;;;;;0.10;0.10;;;;;;;;;;5122234;27;20124;-83
2023/10/16 02:35:21;;;;;;;0.10;0.10;;;;;;;;;;5101570;27;20044;-83
2023/10/16 02:37:53;;;;;;;0.10;0.10;;;;;;;;;;5113898;27;20505;-83
2023/10/16 02:40:20;;;;;;;0.10;0.10;;;;;;;;;;5117152;27;20916;-84
2023/10/16 02:42:52;;;;;;;0.10;0.10;;;;;;;;;;5116283;27;20133;-84
2023/10/16 02:45:24;;;;;;;0.10;0.10;;;;;;;;;;5119362;27;20060;-83
2023/10/16 02:47:52;;;;;;;0.10;0.10;;;;;;;;;;5109180;27;20143;-85
2023/10/16 02:50:22;;;;;;;0.10;0.10;;;;;;;;;;5103536;28;20563;-83
2023/10/16 02:52:48;;;;;;;0.10;0.10;;;;;;;;;;5119253;27;20063;-83
2023/10/16 02:55:15;;;;;;;0.10;0.10;;;;;;;;;;5101487;27;20052;-85
2023/10/16 02:57:42;;;;;;;0.10;0.10;;;;;;;;;;5097512;28;20139;-83
2023/10/16 03:00:24;;;;;;;0.10;0.10;;;;;;;;;;5106048;27;20041;-85
2023/10/16 03:02:51;;;;;;;0.10;0.10;;;;;;;;;;5105207;28;20062;-84
2023/10/16 03:05:24;;;;;;;0.10;0.10;;;;;;;;;;5113841;27;20172;-82
2023/10/16 03:07:52;;;;;;;0.10;0.10;;;;;;;;;;5102828;28;20127;-85
2023/10/16 03:10:20;;;;;;;0.10;0.10;;;;;;;;;;5121574;27;20037;-82
2023/10/16 03:12:49;;;;;;;0.10;0.10;;;;;;;;;;5104160;27;20066;-82
2023/10/16 03:15:20;;;;;;;0.10;0.10;;;;;;;;;;5095938;27;20040;-83
2023/10/16 03:17:50;;;;;;;;;;;;;;;;;;5097713;27;20055;-82
2023/10/16 03:20:20;;;;;;;0.10;0.10;;;;;;;;;;5099369;27;48603;-82
2023/10/16 03:22:50;;;;;;;0.10;0.10;;;;;;;;;;5098533;28;20056;-83
2023/10/16 03:28:05;;;;;;;0.10;0.10;;;;;;;;;;5115782;27;20048;-83
2023/10/16 03:30:32;;;;;;;0.10;0.10;;;;;;;;;;5097252;27;21278;-82
2023/10/16 03:32:59;;;;;;;0.10;0.10;;;;;;;;;;5098818;28;20704;-84
2023/10/16 03:35:26;;;;;;;0.10;0.10;;;;;;;;;;5104068;27;20075;-83
2023/10/16 03:37:54;;;;;;;0.10;0.10;;;;;;;;;;5120445;27;20056;-84
2023/10/16 03:40:24;;;;;;;0.10;0.10;;;;;;;;;;5099318;28;20135;-82
2023/10/16 03:42:51;;;;;;;0.10;0.10;;;;;;;;;;5105540;27;20479;-83
2023/10/16 03:45:20;;;;;;;0.10;0.10;;;;;;;;;;5100692;27;20054;-82
2023/10/16 03:47:51;;;;;;;0.10;0.10;;;;;;;;;;5114281;27;20052;-84
2023/10/16 03:50:24;;;;;;;0.10;0.10;;;;;;;;;;5100370;27;20063;-83
2023/10/16 03:52:51;;;;;;;0.10;0.10;;;;;;;;;;5097828;27;20103;-82
2023/10/16 03:55:22;;;;;;;0.10;0.10;;;;;;;;;;5092752;27;20052;-82
2023/10/16 03:57:50;;;;;;;0.10;0.10;;;;;;;;;;5110426;27;20056;-84
2023/10/16 04:00:25;;;;;;;0.10;0.10;;;;;;;;;;5096882;27;20063;-82
2023/10/16 04:02:52;;;;;;;0.10;0.10;;;;;;;;;;5096535;28;20076;-84
2023/10/16 04:05:45;;;;;;;0.10;0.10;;;;;;;;;;5102782;27;20056;-83
2023/10/16 04:08:13;;;;;;;0.10;0.10;;;;;;;;;;5118023;27;20052;-82
2023/10/16 04:10:46;;;;;;;0.10;0.10;;;;;;;;;;5100964;28;20040;-82
2023/10/16 04:13:14;;;;;;;0.10;0.10;;;;;;;;;;5096476;27;20060;-84
2023/10/16 04:21:09;;;;;;;0.10;0.10;;;;;;;;;;5115747;27;20146;-83
2023/10/16 04:23:52;;;;;;;0.10;0.10;;;;;;;;;;5096396;27;20047;-83
2023/10/16 04:26:32;;;;;;;0.10;0.10;;;;;;;;;;5106880;27;20057;-83
2023/10/16 04:31:45;;;;;;;0.10;0.10;;;;;;;;;;5113613;27;20055;-83
2023/10/16 04:37:29;;;;;;;0.10;0.10;;;;;;;;;;5112242;27;20076;-82
2023/10/16 04:47:56;;;;;;;;;;;;;;;;;;5111057;27;20077;-82
2023/10/16 04:50:31;;;;;;;0.10;0.10;;;;;;;;;;5113524;27;45784;-83
2023/10/16 04:53:25;;;;;;;0.10;0.10;;;;;;;;;;5108405;27;20161;-83
2023/10/16 05:06:27;;;;;;;0.10;0.10;;;;;;;;;;5115996;27;20052;-83
2023/10/16 05:11:27;;;;;;;0.10;0.10;;;;;;;;;;5102498;27;20093;-83
2023/10/16 05:16:47;;;;;;;0.10;0.10;;;;;;;;;;5120892;27;20052;-83
2023/10/16 05:22:03;;;;;;;0.10;0.10;;;;;;;;;;5103463;27;20051;-83
2023/10/16 06:14:17;;;;;;;0.10;0.10;;;;;;;;;;5109632;27;20048;-84
2023/10/16 06:16:47;;;;;;;0.10;0.10;;;;;;;;;;5094569;28;20052;-83
2023/10/16 06:19:14;;;;;;;0.10;0.10;;;;;;;;;;5116943;27;20078;-83
2023/10/16 06:21:45;;;;;;;0.52;0.52;;;;;;;;;;5103936;27;20239;-83
2023/10/16 06:24:32;;;;;;;0.10;0.10;;;;;;;;;;5085779;27;20048;-84
2023/10/16 06:27:00;;;;;;;0.10;0.10;;;;;;;;;;5085200;28;20084;-83
2023/10/16 06:29:34;;;;;;;0.10;0.10;;;;;;;;;;5088052;27;20063;-83
2023/10/16 06:32:06;;;;;;;0.10;0.10;;;;;;;;;;5086694;28;20055;-79
2023/10/16 06:34:33;;;;;;;0.10;0.10;;;;;;;;;;5097405;27;20056;-79
2023/10/16 06:37:10;;;;;;;0.10;0.10;;;;;;;;;;5086541;27;20140;-78
2023/10/16 06:39:36;;;;;;;0.10;0.10;;;;;;;;;;5107064;27;20135;-80
2023/10/16 06:42:04;;;;;;;0.10;0.10;;;;;;;;;;5104140;27;20855;-79
2023/10/16 06:44:34;;;;;;;0.10;0.10;;;;;;;;;;5110071;27;20053;-79
2023/10/16 06:47:00;;;;;;;0.10;0.10;;;;;;;;;;5108308;27;20063;-78
2023/10/16 06:49:28;;;;;;;0.10;0.10;;;;;;;;;;5102821;27;20086;-79
2023/10/16 06:51:57;;;;;;;0.10;0.10;;;;;;;;;;5108480;27;20051;-78
2023/10/16 06:54:25;;;;;;;0.10;0.10;;;;;;;;;;5087463;28;20052;-78
2023/10/16 06:56:52;;;;;;;0.10;0.10;;;;;;;;;;5086885;27;20189;-79
2023/10/16 06:59:18;;;;;;;0.10;0.10;;;;;;;;;;5106277;27;20802;-78
2023/10/16 07:01:46;;;;;;;0.10;0.10;;;;;;;;;;5101301;27;20048;-78
2023/10/16 07:04:14;;;;;;;0.25;0.25;;;;;;;;;;5094857;27;20274;-79
2023/10/16 07:06:42;;;;;;;0.25;0.25;;;;;;;;;;5092812;27;21044;-79
2023/10/16 07:09:12;;;;;;;0.10;0.10;;;;;;;;;;5084965;28;20052;-79
2023/10/16 07:11:42;;;;;;;0.20;0.20;;;;;;;;;;5089409;27;20056;-79
2023/10/16 07:14:17;;;;;;;0.10;0.10;;;;;;;;;;5091294;28;20079;-80
2023/10/16 07:16:47;;;;;;;0.10;0.10;;;;;;;;;;5104631;27;20078;-79
2023/10/16 07:19:16;;;;;;;0.10;0.10;;;;;;;;;;5091453;28;20048;-79
2023/10/16 07:21:48;;;;;;;0.10;0.10;;;;;;;;;;5090317;27;20047;-80
2023/10/16 07:24:15;;;;;;;0.00;0.00;;;;;;;;;;5110318;27;20527;-82
2023/10/16 07:26:44;;;;;;;0.00;0.00;;;;;;;;;;5109995;27;20189;-80
2023/10/16 07:29:14;;;;;;;0.10;0.10;;;;;;;;;;5107951;27;20060;-80
2023/10/16 07:31:40;;;;;;;0.10;0.10;;;;;;;;;;5090404;27;20052;-79
2023/10/16 07:34:07;;;;;;;0.10;0.10;;;;;;;;;;5091311;28;20131;-79
2023/10/16 07:36:34;;;;;;;0.10;0.10;;;;;;;;;;5109189;27;20056;-78
2023/10/16 07:39:02;;;;;;;0.08;0.08;;;;;;;;;;5107913;27;20051;-78
2023/10/16 07:41:29;;;;;;;0.10;0.10;;;;;;;;;;5086350;27;20052;-78
2023/10/16 07:44:04;;;;;;;0.10;0.10;;;;;;;;;;5101800;27;20506;-78
2023/10/16 07:46:30;;;;;;;0.10;0.10;;;;;;;;;;5095913;27;20429;-78
2023/10/16 07:49:01;;;;;;;0.10;0.10;;;;;;;;;;5079624;28;20052;-78
2023/10/16 07:51:28;;;;;;;0.10;0.10;;;;;;;;;;5104192;27;20533;-79
2023/10/16 07:53:56;;;;;;;0.10;0.10;;;;;;;;;;5086251;27;20516;-78
2023/10/16 07:58:54;;;;;;;0.10;0.10;;;;;;;;;;5107051;27;20118;-78
2023/10/16 08:01:36;;;;;;;0.10;0.10;;;;;;;;;;5086476;27;23763;-80
2023/10/16 08:04:05;;;;;;;0.10;0.10;;;;;;;;;;5090594;28;20770;-80
2023/10/16 08:06:33;;;;;;;0.10;0.10;;;;;;;;;;5083801;28;20086;-79
2023/10/16 08:11:44;;;;;;;0.10;0.10;;;;;;;;;;5109230;27;20056;-79
2023/10/16 08:14:13;;;;;;;0.10;0.10;;;;;;;;;;5091250;28;20060;-79
2023/10/16 08:16:39;;;;;;;0.10;0.10;;;;;;;;;;5108470;27;20936;-80
2023/10/16 08:19:15;;;;;;;0.10;0.10;;;;;;;;;;5090734;28;20075;-80
2023/10/16 08:21:42;;;;;;;0.10;0.10;;;;;;;;;;5110403;27;20052;-80
2023/10/16 08:24:13;;;;;;;0.10;0.10;;;;;;;;;;5092088;28;20048;-79
2023/10/16 08:26:44;;;;;;;0.00;0.00;;;;;;;;;;5097187;27;20063;-78
2023/10/16 08:31:44;;;;;;;0.10;0.10;;;;;;;;;;5103358;27;20427;-78
2023/10/16 08:34:11;;;;;;;0.00;0.00;;;;;;;;;;5102840;27;20512;-79
2023/10/16 08:36:38;;;;;;;0.10;0.10;;;;;;;;;;5090610;27;20055;-77
2023/10/16 08:39:08;;;;;;;0.10;0.10;;;;;;;;;;5086207;28;20052;-81
2023/10/16 08:41:42;;;;;;;0.93;0.40;;;;;;;;;;5104143;27;20055;-79
2023/10/16 08:44:17;;;;;;;0.10;0.10;;;;;;;;;;5107840;27;20184;-79
2023/10/16 08:49:26;;;;;;;0.10;0.10;;;;;;;;;;5113573;27;20433;-80
2023/10/16 08:51:54;;;;;;;0.10;0.10;;;;;;;;;;5091900;27;20087;-79
2023/10/16 08:57:08;;;;;;;0.10;0.10;;;;;;;;;;5103254;27;20056;-79
2023/10/16 08:59:38;;;;;;;0.10;0.10;;;;;;;;;;5091350;27;20564;-80
2023/10/16 09:02:06;;;;;;;0.10;0.10;;;;;;;;;;5100583;27;20133;-78
2023/10/16 09:04:34;;;;;;;0.10;0.10;;;;;;;;;;5108761;27;20059;-78
2023/10/16 09:07:01;;;;;;;0.10;0.10;;;;;;;;;;5089063;27;20070;-78
2023/10/16 09:09:29;;;;;;;0.10;0.10;;;;;;;;;;5082770;28;20094;-80
2023/10/16 09:12:10;;;;;;;0.10;0.10;;;;;;;;;;5090256;27;20063;-81
2023/10/16 09:14:38;;;;;;;0.10;0.10;;;;;;;;;;5174350;22;20153;-78
2023/10/16 09:17:06;;;;;;;0.10;0.10;;;;;;;;;;5102677;27;20059;-77
2023/10/16 09:19:34;;;;;;;0.20;0.20;;;;;;;;;;5117522;27;20109;-78
2023/10/16 09:22:04;;;;;;;0.00;0.00;;;;;;;;;;5111148;27;20178;-78
2023/10/16 09:24:33;;;;;;;0.10;0.10;;;;;;;;;;5118157;27;20126;-77
2023/10/16 09:27:00;;;;;;;0.10;0.10;;;;;;;;;;5111549;27;20429;-78
2023/10/16 09:29:27;;;;;;;0.10;0.10;;;;;;;;;;5107142;27;20052;-78
2023/10/16 09:31:54;;;;;;;0.10;0.10;;;;;;;;;;5118596;27;20059;-79
2023/10/16 09:34:22;;;;;;;0.10;0.10;;;;;;;;;;5117521;27;20606;-78
2023/10/16 09:36:49;;;;;;;0.10;0.10;;;;;;;;;;5102844;27;20056;-78
2023/10/16 09:39:19;;;;;;;0.10;0.10;;;;;;;;;;5111804;27;20056;-78
2023/10/16 09:41:51;;;;;;;0.10;0.10;;;;;;;;;;5108548;27;20052;-79
2023/10/16 09:44:22;;;;;;;0.00;0.00;;;;;;;;;;5125533;27;20720;-78
2023/10/16 09:49:21;;;;;;;0.10;0.10;;;;;;;;;;5119786;27;20063;-78
2023/10/16 09:51:57;;;;;;;0.35;0.32;;;;;;;;;;5124138;27;20051;-79
2023/10/16 09:54:33;;;;;;;0.50;0.30;;;;;;;;;;5119089;27;20048;-78
2023/10/16 09:57:06;;;;;;;0.10;0.10;;;;;;;;;;5116855;27;20052;-78
2023/10/16 09:59:33;;;;;;;0.10;0.10;;;;;;;;;;5122817;27;20055;-78
2023/10/16 10:02:05;;;;;;;0.10;0.10;;;;;;;;;;5123326;27;20068;-78
2023/10/16 10:04:35;;;;;;;0.10;0.10;;;;;;;;;;5121066;27;20055;-79
2023/10/16 10:07:11;;;;;;;0.10;0.10;;;;;;;;;;5096084;27;20044;-78
2023/10/16 10:09:41;;;;;;;0.10;0.10;;;;;;;;;;5095781;27;21074;-78
2023/10/16 10:12:22;;;;;;;0.10;0.10;;;;;;;;;;5103817;27;20070;-78
2023/10/16 10:14:49;;;;;;;;;;;;;;;;;;5116807;27;20729;-79
2023/10/16 10:17:20;;;;;;;0.10;0.10;;;;;;;;;;5112021;27;43883;-78
2023/10/16 10:19:55;;;;;;;0.68;0.68;;;;;;;;;;5109351;27;20056;-78
2023/10/16 10:22:28;;;;;;;0.10;0.10;;;;;;;;;;5091337;27;20054;-79
2023/10/16 10:25:16;;;;;;;0.10;0.10;;;;;;;;;;5112561;27;20047;-78
2023/10/16 10:27:47;;;;;;;0.10;0.10;;;;;;;;;;5098826;27;20159;-78
2023/10/16 10:30:25;;;;;;;0.10;0.10;;;;;;;;;;5110201;27;20524;-79
2023/10/16 10:32:55;;;;;;;0.10;0.10;;;;;;;;;;5114516;27;20166;-78
2023/10/16 10:35:29;;;;;;;0.10;0.10;;;;;;;;;;5109763;27;20043;-77
2023/10/16 10:38:07;;;;;;;0.10;0.10;;;;;;;;;;5122935;27;20075;-78
2023/10/16 10:40:35;;;;;;;0.10;0.10;;;;;;;;;;5120354;27;20517;-77
2023/10/16 10:43:04;;;;;;;0.10;0.10;;;;;;;;;;5115467;27;20100;-78
2023/10/16 10:45:34;;;;;;;0.10;0.10;;;;;;;;;;5119886;27;20143;-78
2023/10/16 10:48:06;;;;;;;0.10;0.10;;;;;;;;;;5105192;27;20523;-78
2023/10/16 10:50:34;;;;;;;0.10;0.10;;;;;;;;;;5129212;27;20171;-78
2023/10/16 10:53:06;;;;;;;0.10;0.10;;;;;;;;;;5128282;27;20437;-78
2023/10/16 10:55:33;;;;;;;0.43;0.30;;;;;;;;;;5116402;27;20036;-78
2023/10/16 10:58:01;;;;;;;0.10;0.10;;;;;;;;;;5091908;27;20059;-79
2023/10/16 11:03:22;;;;;;;0.10;0.10;;;;;;;;;;5120853;27;20101;-78
2023/10/16 11:05:45;;;;;;;0.10;0.10;;;;;;;;;;5122365;27;20055;-78
2023/10/16 11:10:41;;;;;;;0.10;0.10;;;;;;;;;;5127870;27;20056;-79
2023/10/16 11:13:08;;;;;;;0.10;0.10;;;;;;;;;;5125488;27;20052;-79
2023/10/16 11:15:35;;;;;;;0.10;0.10;;;;;;;;;;5115917;27;20054;-78
2023/10/16 11:18:11;;;;;;;0.10;0.10;;;;;;;;;;5129220;27;20048;-83
2023/10/16 11:20:39;;;;;;;0.15;0.15;;;;;;;;;;5125383;27;20109;-81
2023/10/16 11:23:12;;;;;;;0.10;0.10;;;;;;;;;;5129943;27;20136;-81
2023/10/16 11:25:43;;;;;;;0.10;0.10;;;;;;;;;;5129277;27;20048;-81
2023/10/16 11:28:20;;;;;;;0.10;0.10;;;;;;;;;;5123656;27;20079;-79
2023/10/16 11:30:49;;;;;;;0.10;0.10;;;;;;;;;;5123651;27;20440;-80
2023/10/16 11:33:26;;;;;;;0.10;0.10;;;;;;;;;;5124334;27;20063;-82
2023/10/16 11:35:55;;;;;;;0.10;0.10;;;;;;;;;;5123293;27;20040;-81
2023/10/16 11:38:28;;;;;;;0.10;0.10;;;;;;;;;;5124770;27;20052;-81
2023/10/16 11:40:55;;;;;;;0.10;0.10;;;;;;;;;;5117652;27;20056;-80
2023/10/16 11:43:22;;;;;;;0.10;0.10;;;;;;;;;;5094057;27;20921;-82
2023/10/16 11:45:56;;;;;;;0.10;0.10;;;;;;;;;;5120513;27;20047;-81
2023/10/16 11:50:51;;;;;;;0.10;0.10;;;;;;;;;;5128834;27;20047;-80
2023/10/16 11:53:23;;;;;;;0.10;0.10;;;;;;;;;;5119848;27;21255;-79
2023/10/16 11:55:50;;;;;;;0.10;0.10;;;;;;;;;;5120913;27;20052;-79
2023/10/16 11:58:16;;;;;;;0.10;0.10;;;;;;;;;;5117958;27;20470;-82
2023/10/16 12:00:53;;;;;;;0.10;0.10;;;;;;;;;;5124598;27;20140;-80
2023/10/16 12:03:20;;;;;;;0.10;0.10;;;;;;;;;;5120739;27;20098;-80
2023/10/16 12:05:46;;;;;;;0.10;0.10;;;;;;;;;;5129273;27;20135;-80
2023/10/16 12:08:18;;;;;;;0.10;0.10;;;;;;;;;;5122490;27;20113;-82
2023/10/16 12:10:46;;;;;;;0.10;0.10;;;;;;;;;;5097354;27;20048;-79
2023/10/16 12:13:16;;;;;;;0.10;0.10;;;;;;;;;;5132491;27;20048;-79
2023/10/16 12:15:44;;;;;;;0.10;0.10;;;;;;;;;;5108977;27;20055;-80
2023/10/16 12:18:12;;;;;;;0.20;0.20;;;;;;;;;;5129174;27;20047;-81
2023/10/16 12:20:39;;;;;;;0.10;0.10;;;;;;;;;;5117565;27;20096;-81
2023/10/16 12:23:06;;;;;;;0.45;0.30;;;;;;;;;;5130203;27;20050;-81
2023/10/16 12:25:34;;;;;;;0.10;0.10;;;;;;;;;;5121656;27;20048;-81
2023/10/16 12:28:02;;;;;;;0.10;0.10;;;;;;;;;;5112946;27;20055;-81
2023/10/16 12:30:28;;;;;;;0.10;0.10;;;;;;;;;;5116246;27;20047;-82
2023/10/16 12:32:55;;;;;;;0.10;0.10;;;;;;;;;;5119883;27;20075;-79
2023/10/16 12:35:22;;;;;;;0.10;0.10;;;;;;;;;;5131306;27;20525;-79
2023/10/16 12:37:55;;;;;;;0.10;0.10;;;;;;;;;;5128760;27;20047;-81
2023/10/16 12:40:27;;;;;;;0.10;0.10;;;;;;;;;;5125096;27;20051;-80
2023/10/16 12:43:05;;;;;;;0.10;0.10;;;;;;;;;;5112862;27;20121;-81
2023/10/16 12:45:32;;;;;;;0.10;0.10;;;;;;;;;;5123680;27;20055;-79
2023/10/16 12:47:59;;;;;;;0.10;0.10;;;;;;;;;;5127666;27;21936;-79
2023/10/16 12:50:27;;;;;;;0.10;0.10;;;;;;;;;;5127325;27;20059;-82
2023/10/16 12:52:54;;;;;;;0.13;0.13;;;;;;;;;;5132064;27;20105;-81
2023/10/16 12:55:22;;;;;;;0.10;0.10;;;;;;;;;;5123359;27;20598;-82
2023/10/16 12:57:49;;;;;;;0.10;0.10;;;;;;;;;;5122993;27;20048;-80
2023/10/16 13:00:23;;;;;;;0.10;0.10;;;;;;;;;;5105116;27;20077;-81
2023/10/16 13:02:51;;;;;;;0.20;0.20;;;;;;;;;;5106522;27;20075;-83
2023/10/16 13:05:19;;;;;;;0.10;0.10;;;;;;;;;;5127565;27;20056;-79
2023/10/16 13:07:47;;;;;;;0.50;0.50;;;;;;;;;;5115444;27;20047;-80
2023/10/16 13:10:25;;;;;;;0.10;0.10;;;;;;;;;;5109396;27;20519;-80
2023/10/16 13:12:53;;;;;;;0.20;0.20;;;;;;;;;;5123122;27;20050;-82
2023/10/16 13:15:25;;;;;;;0.10;0.10;;;;;;;;;;5105693;27;20141;-82
2023/10/16 13:17:52;;;;;;;0.10;0.10;;;;;;;;;;5109452;28;20056;-80
2023/10/16 13:20:19;;;;;;;0.20;0.20;;;;;;;;;;5130286;27;20052;-81
2023/10/16 13:22:49;;;;;;;0.10;0.10;;;;;;;;;;5112824;27;20055;-81
2023/10/16 13:25:17;;;;;;;0.10;0.10;;;;;;;;;;5116762;27;20043;-79
2023/10/16 13:27:46;;;;;;;0.10;0.10;;;;;;;;;;5123077;27;20083;-81
2023/10/16 13:30:16;;;;;;;0.10;0.10;;;;;;;;;;5115581;27;20196;-81
2023/10/16 13:32:46;;;;;;;0.10;0.10;;;;;;;;;;5116929;27;20059;-79
2023/10/16 13:35:13;;;;;;;0.10;0.10;;;;;;;;;;5128567;27;20082;-80
2023/10/16 13:37:43;;;;;;;0.10;0.10;;;;;;;;;;5106800;28;20036;-80
2023/10/16 13:40:32;;;;;;;0.10;0.10;;;;;;;;;;5124817;27;20254;-80
2023/10/16 13:43:00;;;;;;;0.20;0.20;;;;;;;;;;5132386;27;20099;-79
2023/10/16 13:45:27;;;;;;;0.10;0.10;;;;;;;;;;5128677;27;20661;-79
2023/10/16 13:47:54;;;;;;;0.10;0.10;;;;;;;;;;5126247;27;20368;-80
2023/10/16 13:50:24;;;;;;;0.10;0.10;;;;;;;;;;5130309;27;20043;-80
2023/10/16 13:52:52;;;;;;;0.10;0.10;;;;;;;;;;5131471;27;20062;-79
2023/10/16 13:55:21;;;;;;;0.10;0.10;;;;;;;;;;5126017;27;20079;-78
2023/10/16 13:57:49;;;;;;;0.10;0.10;;;;;;;;;;5122418;27;20054;-80
2023/10/16 14:00:29;;;;;;;0.10;0.10;;;;;;;;;;5109620;27;20055;-82
2023/10/16 14:02:57;;;;;;;0.10;0.10;;;;;;;;;;5122138;27;20060;-82
2023/10/16 14:05:24;;;;;;;0.10;0.10;;;;;;;;;;5129407;27;20074;-79
2023/10/16 14:07:53;;;;;;;0.10;0.10;;;;;;;;;;5124376;27;20166;-80
2023/10/16 14:10:21;;;;;;;0.10;0.10;;;;;;;;;;5123291;27;20051;-79
2023/10/16 14:12:58;;;;;;;0.30;0.30;;;;;;;;;;5117338;27;20143;-79
2023/10/16 14:15:26;;;;;;;0.10;0.10;;;;;;;;;;5120014;27;20060;-80
2023/10/16 14:17:57;;;;;;;0.10;0.10;;;;;;;;;;5120852;27;20056;-81
2023/10/16 14:20:37;;;;;;;0.10;0.10;;;;;;;;;;5122974;27;20051;-81
2023/10/16 14:23:09;;;;;;;0.10;0.10;;;;;;;;;;5132502;27;20059;-80
2023/10/16 14:25:38;;;;;;;0.10;0.10;;;;;;;;;;5128149;27;20079;-81
2023/10/16 14:28:25;;;;;;;0.10;0.10;;;;;;;;;;5115534;27;20056;-79
2023/10/16 14:30:54;;;;;;;0.10;0.10;;;;;;;;;;5124288;27;20058;-79
2023/10/16 14:33:24;;;;;;;0.10;0.10;;;;;;;;;;5124903;27;20056;-79
2023/10/16 14:35:50;;;;;;;0.20;0.20;;;;;;;;;;5113468;27;20114;-78
2023/10/16 14:38:19;;;;;;;0.10;0.10;;;;;;;;;;5118180;27;20526;-79
2023/10/16 14:40:46;;;;;;;0.10;0.10;;;;;;;;;;5116376;27;20056;-80
2023/10/16 14:43:15;;;;;;;0.10;0.10;;;;;;;;;;5125181;27;20056;-80
2023/10/16 14:45:43;;;;;;;0.22;0.22;;;;;;;;;;5121553;27;20892;-80
2023/10/16 14:48:09;;;;;;;0.10;0.10;;;;;;;;;;5135406;27;20147;-80
2023/10/16 14:50:36;;;;;;;0.30;0.30;;;;;;;;;;5125044;27;20059;-81
2023/10/16 14:53:06;;;;;;;0.10;0.10;;;;;;;;;;5126336;27;20063;-80
2023/10/16 14:55:35;;;;;;;0.10;0.10;;;;;;;;;;5126344;27;20079;-81
2023/10/16 14:58:02;;;;;;;0.10;0.10;;;;;;;;;;5129706;27;20051;-82
2023/10/16 15:00:50;;;;;;;0.10;0.10;;;;;;;;;;5132448;27;20572;-80
2023/10/16 15:03:17;;;;;;;0.10;0.10;;;;;;;;;;5127643;27;20567;-82
2023/10/16 15:05:45;;;;;;;0.10;0.10;;;;;;;;;;5098578;27;20047;-81
2023/10/16 15:08:12;;;;;;;0.10;0.10;;;;;;;;;;5117434;27;20142;-81
2023/10/16 15:10:40;;;;;;;0.10;0.10;;;;;;;;;;5126870;27;20052;-81
2023/10/16 15:13:16;;;;;;;0.10;0.10;;;;;;;;;;5128442;27;20062;-81
2023/10/16 15:15:43;;;;;;;0.10;0.10;;;;;;;;;;5108873;27;20498;-79
2023/10/16 15:18:09;;;;;;;0.10;0.10;;;;;;;;;;5105458;27;20056;-82
2023/10/16 15:20:38;;;;;;;0.10;0.10;;;;;;;;;;5122671;27;20036;-81
2023/10/16 15:23:05;;;;;;;0.10;0.10;;;;;;;;;;5130209;27;20051;-82
2023/10/16 15:25:32;;;;;;;0.22;0.22;;;;;;;;;;5126054;27;20056;-81
2023/10/16 15:27:58;;;;;;;0.10;0.10;;;;;;;;;;5128206;27;20044;-80
2023/10/16 15:30:27;;;;;;;0.10;0.10;;;;;;;;;;5120637;27;20113;-80
2023/10/16 15:32:54;;;;;;;0.10;0.10;;;;;;;;;;5125046;27;20071;-79
2023/10/16 15:35:23;;;;;;;0.10;0.10;;;;;;;;;;5130073;27;20061;-83
2023/10/16 15:37:49;;;;;;;0.10;0.10;;;;;;;;;;5137079;27;20852;-79
2023/10/16 15:40:17;;;;;;;0.10;0.10;;;;;;;;;;5124943;27;20051;-80
2023/10/16 15:42:45;;;;;;;0.10;0.10;;;;;;;;;;5127843;27;20055;-83
2023/10/16 15:45:12;;;;;;;0.10;0.10;;;;;;;;;;5118274;27;20051;-81
2023/10/16 15:47:41;;;;;;;0.10;0.10;;;;;;;;;;5123551;27;20056;-79
2023/10/16 15:50:10;;;;;;;0.10;0.10;;;;;;;;;;5121623;27;20048;-82
2023/10/16 15:52:38;;;;;;;0.10;0.10;;;;;;;;;;5115834;27;20056;-79
2023/10/16 15:55:04;;;;;;;0.10;0.10;;;;;;;;;;5117842;27;20143;-80
2023/10/16 15:57:34;;;;;;;0.30;0.30;;;;;;;;;;5117751;27;20129;-80
2023/10/16 16:00:04;;;;;;;0.30;0.30;;;;;;;;;;5101116;27;20071;-82
2023/10/16 16:02:32;;;;;;;0.10;0.10;;;;;;;;;;5119666;27;20067;-79
2023/10/16 16:04:59;;;;;;;0.10;0.10;;;;;;;;;;5127300;27;20052;-80
2023/10/16 16:07:28;;;;;;;0.10;0.10;;;;;;;;;;5103861;27;20063;-81
2023/10/16 16:09:57;;;;;;;0.28;0.20;;;;;;;;;;5113859;27;20058;-80
2023/10/16 16:12:25;;;;;;;0.10;0.10;;;;;;;;;;5124267;27;20506;-79
2023/10/16 16:14:51;;;;;;;0.10;0.10;;;;;;;;;;5111804;27;20055;-80
2023/10/16 16:17:23;;;;;;;0.10;0.10;;;;;;;;;;5120852;27;20052;-80
2023/10/16 16:19:49;;;;;;;0.10;0.10;;;;;;;;;;5101494;27;20112;-83
2023/10/16 16:22:16;;;;;;;0.10;0.10;;;;;;;;;;5120708;27;20056;-80
2023/10/16 16:24:44;;;;;;;0.10;0.10;;;;;;;;;;5114448;27;20063;-78
2023/10/16 16:27:10;;;;;;;0.10;0.10;;;;;;;;;;5121591;27;20055;-77
2023/10/16 16:29:37;;;;;;;0.10;0.10;;;;;;;;;;5100624;27;20056;-78
2023/10/16 16:32:04;;;;;;;0.52;0.30;;;;;;;;;;5108043;27;20789;-81
2023/10/16 16:34:31;;;;;;;0.10;0.10;;;;;;;;;;5111462;27;20588;-80
2023/10/16 16:37:00;;;;;;;0.10;0.10;;;;;;;;;;5121144;27;20052;-79
2023/10/16 16:39:35;;;;;;;0.13;0.13;;;;;;;;;;5120068;27;20070;-79
2023/10/16 16:42:04;;;;;;;0.10;0.10;;;;;;;;;;5119362;27;20059;-79
2023/10/16 16:44:30;;;;;;;0.10;0.10;;;;;;;;;;5115145;27;20056;-80
2023/10/16 16:46:58;;;;;;;0.10;0.10;;;;;;;;;;5108527;27;20051;-80
2023/10/16 16:49:25;;;;;;;0.10;0.10;;;;;;;;;;5103994;27;20558;-79
2023/10/16 16:51:52;;;;;;;0.20;0.20;;;;;;;;;;5119795;27;20055;-79
2023/10/16 16:54:19;;;;;;;0.10;0.10;;;;;;;;;;5122009;27;20059;-80
2023/10/16 16:56:47;;;;;;;0.10;0.10;;;;;;;;;;5119460;27;20143;-80
2023/10/16 16:59:16;;;;;;;0.10;0.10;;;;;;;;;;5123137;27;20065;-79